Time;durP1;ratioP1;P1;durP2;ratioP2;P2;SDS_P1;SDS_P2;PMS_P1;PMS_P2;Temp;Humidity;BMP_temperature;BMP_pressure;BME280_temperature;BME280_humidity;BME280_pressure;Samples;Min_cycle;Max_cycle;Signal;HPM_P1;HPM_P2
2024/01/21 00:00:16;;;;;;;7.90;4.88;;;;;;;;;;5052623;27;92428;-74
2024/01/21 00:02:42;;;;;;;7.85;5.03;;;;;;;;;;5032764;27;92532;-73
2024/01/21 00:05:09;;;;;;;7.15;5.32;;;;;;;;;;5039457;27;94785;-74
2024/01/21 00:07:38;;;;;;;7.90;4.82;;;;;;;;;;5052697;27;95097;-74
2024/01/21 00:10:06;;;;;;;7.78;4.50;;;;;;;;;;5031858;27;93307;-73
2024/01/21 00:12:33;;;;;;;5.97;4.35;;;;;;;;;;5034083;27;93054;-73
2024/01/21 00:14:59;;;;;;;7.45;4.38;;;;;;;;;;5050038;27;92438;-74
2024/01/21 00:17:26;;;;;;;5.95;4.55;;;;;;;;;;5054660;27;92506;-74
2024/01/21 00:19:52;;;;;;;7.88;4.72;;;;;;;;;;5033995;27;92939;-74
2024/01/21 00:22:19;;;;;;;5.45;4.35;;;;;;;;;;5035762;27;92978;-74
2024/01/21 00:24:45;;;;;;;5.20;4.68;;;;;;;;;;5054350;27;92366;-73
2024/01/21 00:27:12;;;;;;;5.13;4.03;;;;;;;;;;5057016;27;93063;-73
2024/01/21 00:29:38;;;;;;;4.15;3.65;;;;;;;;;;5051857;27;96282;-75
2024/01/21 00:32:05;;;;;;;5.95;3.85;;;;;;;;;;5036918;27;92486;-74
2024/01/21 00:34:31;;;;;;;5.18;4.18;;;;;;;;;;5056023;27;92630;-74
2024/01/21 00:36:58;;;;;;;5.72;3.55;;;;;;;;;;5036950;27;93331;-74
2024/01/21 00:39:24;;;;;;;5.53;4.20;;;;;;;;;;5056260;27;92388;-74
2024/01/21 00:41:51;;;;;;;5.18;3.70;;;;;;;;;;5036601;27;92548;-74
2024/01/21 00:44:30;;;;;;;5.82;3.95;;;;;;;;;;5054492;27;92785;-74
2024/01/21 00:46:57;;;;;;;7.38;4.70;;;;;;;;;;5056479;27;92947;-74
2024/01/21 00:49:23;;;;;;;5.03;4.00;;;;;;;;;;5058384;27;93443;-74
2024/01/21 00:51:50;;;;;;;6.18;3.78;;;;;;;;;;5055289;27;92469;-74
2024/01/21 00:54:16;;;;;;;6.47;4.60;;;;;;;;;;5053608;27;95082;-73
2024/01/21 00:56:43;;;;;;;6.68;4.03;;;;;;;;;;5056070;27;94375;-74
2024/01/21 00:59:09;;;;;;;5.68;4.30;;;;;;;;;;5054688;27;93222;-74
2024/01/21 01:01:38;;;;;;;7.90;4.55;;;;;;;;;;5054320;27;92547;-74
2024/01/21 01:04:05;;;;;;;3.50;3.20;;;;;;;;;;5035966;27;94926;-73
2024/01/21 01:06:32;;;;;;;4.18;3.75;;;;;;;;;;5054514;27;92436;-73
2024/01/21 01:08:59;;;;;;;5.90;3.85;;;;;;;;;;5057230;27;93799;-73
2024/01/21 01:11:26;;;;;;;4.85;3.70;;;;;;;;;;5055000;27;91560;-74
2024/01/21 01:13:52;;;;;;;3.53;3.22;;;;;;;;;;5037416;27;92434;-74
2024/01/21 01:16:18;;;;;;;6.72;3.28;;;;;;;;;;5036669;27;94223;-74
2024/01/21 01:18:45;;;;;;;4.75;4.00;;;;;;;;;;5040434;27;94854;-74
2024/01/21 01:21:12;;;;;;;4.95;3.67;;;;;;;;;;5054433;27;93916;-74
2024/01/21 01:23:38;;;;;;;4.38;3.80;;;;;;;;;;5054104;27;92594;-74
2024/01/21 01:26:06;;;;;;;7.13;4.00;;;;;;;;;;5035884;27;92389;-74
2024/01/21 01:28:33;;;;;;;5.45;3.47;;;;;;;;;;5054487;27;92452;-74
2024/01/21 01:30:59;;;;;;;4.75;3.55;;;;;;;;;;5057222;27;92614;-74
2024/01/21 01:33:26;;;;;;;4.10;3.45;;;;;;;;;;5054102;27;92402;-74
2024/01/21 01:35:53;;;;;;;3.47;3.08;;;;;;;;;;5054789;27;92330;-74
2024/01/21 01:38:19;;;;;;;3.55;3.10;;;;;;;;;;5053908;27;93919;-74
2024/01/21 01:40:45;;;;;;;5.65;3.85;;;;;;;;;;5054153;27;92380;-74
2024/01/21 01:43:12;;;;;;;5.88;3.45;;;;;;;;;;5052439;27;94801;-74
2024/01/21 01:45:38;;;;;;;4.95;3.33;;;;;;;;;;5053746;27;92527;-74
2024/01/21 01:48:05;;;;;;;4.20;3.03;;;;;;;;;;5035684;27;93170;-74
2024/01/21 01:50:32;;;;;;;5.05;3.10;;;;;;;;;;5053070;27;93252;-74
2024/01/21 01:52:59;;;;;;;6.60;3.65;;;;;;;;;;5056591;27;92486;-74
2024/01/21 01:55:26;;;;;;;5.90;3.42;;;;;;;;;;5054322;27;93181;-74
2024/01/21 01:57:53;;;;;;;4.32;2.90;;;;;;;;;;5052329;27;92384;-75
2024/01/21 02:00:19;;;;;;;4.82;3.20;;;;;;;;;;5054912;27;91946;-74
2024/01/21 02:02:46;;;;;;;4.13;3.30;;;;;;;;;;5029760;27;92477;-74
2024/01/21 02:05:12;;;;;;;5.03;2.80;;;;;;;;;;5053425;27;92470;-74
2024/01/21 02:07:39;;;;;;;3.80;2.72;;;;;;;;;;5052792;27;94815;-74
2024/01/21 02:10:05;;;;;;;3.88;3.00;;;;;;;;;;5052461;27;93549;-74
2024/01/21 02:12:32;;;;;;;3.00;2.80;;;;;;;;;;5054297;27;92893;-74
2024/01/21 02:14:58;;;;;;;3.85;2.88;;;;;;;;;;5055389;27;92987;-74
2024/01/21 02:17:25;;;;;;;3.47;2.63;;;;;;;;;;5045330;27;93918;-74
2024/01/21 02:19:51;;;;;;;4.30;2.75;;;;;;;;;;5048065;27;93288;-73
2024/01/21 02:22:19;;;;;;;4.85;3.05;;;;;;;;;;5054538;27;92304;-74
2024/01/21 02:24:45;;;;;;;2.60;2.40;;;;;;;;;;5052596;27;92346;-74
2024/01/21 02:27:12;;;;;;;5.53;3.25;;;;;;;;;;5053759;27;92766;-73
2024/01/21 02:29:39;;;;;;;2.75;2.42;;;;;;;;;;5052311;27;92743;-74
2024/01/21 02:32:05;;;;;;;4.00;2.85;;;;;;;;;;5033694;27;94814;-74
2024/01/21 02:34:32;;;;;;;3.10;2.53;;;;;;;;;;5053963;27;94324;-74
2024/01/21 02:36:58;;;;;;;3.13;2.83;;;;;;;;;;5055314;27;92402;-74
2024/01/21 02:39:25;;;;;;;2.97;2.60;;;;;;;;;;5054105;27;92348;-74
2024/01/21 02:41:51;;;;;;;5.47;3.42;;;;;;;;;;5054579;27;92328;-74
2024/01/21 02:44:18;;;;;;;3.17;2.67;;;;;;;;;;5052525;27;93029;-74
2024/01/21 02:46:44;;;;;;;3.67;2.38;;;;;;;;;;5053190;27;92825;-75
2024/01/21 02:49:11;;;;;;;2.88;2.47;;;;;;;;;;5052551;27;92539;-74
2024/01/21 02:51:38;;;;;;;3.35;2.63;;;;;;;;;;5052797;27;92496;-74
2024/01/21 02:54:04;;;;;;;2.60;2.40;;;;;;;;;;5051491;27;93185;-74
2024/01/21 02:56:31;;;;;;;2.40;2.20;;;;;;;;;;5052778;27;94830;-74
2024/01/21 02:58:57;;;;;;;2.70;2.50;;;;;;;;;;5055521;27;92348;-74
2024/01/21 03:01:24;;;;;;;2.40;2.20;;;;;;;;;;5035508;27;94935;-74
2024/01/21 03:03:50;;;;;;;4.22;2.08;;;;;;;;;;5052512;27;92743;-74
2024/01/21 03:06:17;;;;;;;3.25;2.22;;;;;;;;;;5053152;27;92339;-74
2024/01/21 03:08:43;;;;;;;2.53;2.25;;;;;;;;;;5053170;27;92373;-74
2024/01/21 03:11:10;;;;;;;3.55;2.38;;;;;;;;;;5025088;27;93527;-74
2024/01/21 03:13:36;;;;;;;2.72;2.38;;;;;;;;;;5047063;27;92885;-74
2024/01/21 03:16:03;;;;;;;2.38;2.15;;;;;;;;;;5052243;27;92378;-74
2024/01/21 03:18:29;;;;;;;3.13;2.28;;;;;;;;;;5056061;27;92580;-74
2024/01/21 03:20:56;;;;;;;2.50;2.33;;;;;;;;;;5031604;27;96638;-74
2024/01/21 03:23:23;;;;;;;1.95;1.85;;;;;;;;;;5053160;27;92499;-74
2024/01/21 03:25:49;;;;;;;3.55;2.85;;;;;;;;;;5052195;27;92404;-74
2024/01/21 03:28:16;;;;;;;2.92;2.30;;;;;;;;;;5052760;27;92959;-73
2024/01/21 03:30:43;;;;;;;3.95;2.30;;;;;;;;;;5044370;27;92881;-73
2024/01/21 03:33:09;;;;;;;3.50;2.63;;;;;;;;;;5052299;27;92715;-74
2024/01/21 03:35:36;;;;;;;3.20;2.58;;;;;;;;;;5053587;27;92404;-73
2024/01/21 03:38:02;;;;;;;2.47;2.10;;;;;;;;;;5052971;27;91955;-73
2024/01/21 03:40:29;;;;;;;2.83;2.42;;;;;;;;;;5055280;27;92515;-73
2024/01/21 03:42:55;;;;;;;2.63;2.10;;;;;;;;;;5053073;27;92476;-73
2024/01/21 03:45:22;;;;;;;3.38;2.28;;;;;;;;;;5049904;27;94779;-73
2024/01/21 03:47:48;;;;;;;3.05;2.72;;;;;;;;;;5052673;27;92365;-74
2024/01/21 03:50:18;;;;;;;4.47;2.60;;;;;;;;;;5033259;27;92655;-74
2024/01/21 03:52:45;;;;;;;2.30;2.20;;;;;;;;;;5052116;27;92423;-74
2024/01/21 03:55:11;;;;;;;4.53;2.30;;;;;;;;;;5053091;27;92323;-74
2024/01/21 03:57:37;;;;;;;3.53;2.22;;;;;;;;;;5052081;27;92401;-74
2024/01/21 04:00:08;;;;;;;3.60;2.80;;;;;;;;;;5052839;27;92507;-73
2024/01/21 04:02:37;;;;;;;3.28;2.40;;;;;;;;;;5055241;27;92415;-74
2024/01/21 04:05:04;;;;;;;6.30;2.53;;;;;;;;;;5053424;27;92328;-74
2024/01/21 04:07:31;;;;;;;3.17;2.33;;;;;;;;;;5052060;27;93134;-74
2024/01/21 04:09:57;;;;;;;3.80;2.45;;;;;;;;;;5049346;27;94900;-74
2024/01/21 04:12:24;;;;;;;2.67;2.42;;;;;;;;;;5046867;27;95258;-74
2024/01/21 04:14:51;;;;;;;4.68;2.00;;;;;;;;;;5053310;27;92431;-73
2024/01/21 04:17:19;;;;;;;3.05;2.05;;;;;;;;;;5050877;27;93282;-73
2024/01/21 04:19:46;;;;;;;2.85;2.45;;;;;;;;;;5032624;27;92750;-73
2024/01/21 04:22:12;;;;;;;2.58;2.38;;;;;;;;;;5051946;27;92365;-74
2024/01/21 04:24:39;;;;;;;3.83;2.42;;;;;;;;;;5037027;27;93063;-74
2024/01/21 04:27:05;;;;;;;2.30;2.10;;;;;;;;;;5052040;27;92256;-74
2024/01/21 04:29:32;;;;;;;3.30;2.47;;;;;;;;;;5049669;27;92620;-74
2024/01/21 04:31:58;;;;;;;2.40;2.20;;;;;;;;;;5052177;27;92952;-74
2024/01/21 04:34:25;;;;;;;2.33;2.10;;;;;;;;;;5049818;27;94791;-74
2024/01/21 04:36:51;;;;;;;3.17;2.17;;;;;;;;;;5033108;27;93168;-74
2024/01/21 04:39:21;;;;;;;2.65;2.42;;;;;;;;;;5051235;27;92638;-74
2024/01/21 04:41:48;;;;;;;2.25;1.98;;;;;;;;;;5051755;27;92419;-73
2024/01/21 04:44:14;;;;;;;2.88;2.10;;;;;;;;;;5051564;27;92347;-74
2024/01/21 04:46:41;;;;;;;2.50;2.30;;;;;;;;;;5054696;27;92720;-74
2024/01/21 04:49:07;;;;;;;3.03;2.20;;;;;;;;;;5051783;27;92416;-74
2024/01/21 04:51:36;;;;;;;2.30;2.05;;;;;;;;;;5051507;27;94129;-74
2024/01/21 04:54:02;;;;;;;4.05;1.80;;;;;;;;;;5051173;27;92370;-74
2024/01/21 04:56:29;;;;;;;2.45;2.17;;;;;;;;;;5051219;27;93938;-74
2024/01/21 04:58:55;;;;;;;2.30;2.10;;;;;;;;;;5049577;27;94704;-74
2024/01/21 05:01:23;;;;;;;2.05;1.70;;;;;;;;;;5053577;27;93089;-74
2024/01/21 05:03:50;;;;;;;2.30;2.10;;;;;;;;;;5054667;27;92396;-74
2024/01/21 05:06:17;;;;;;;2.60;1.95;;;;;;;;;;5057725;27;92386;-74
2024/01/21 05:08:44;;;;;;;2.53;2.20;;;;;;;;;;5054849;27;92911;-74
2024/01/21 05:11:12;;;;;;;1.67;1.58;;;;;;;;;;5054690;27;92735;-74
2024/01/21 05:13:38;;;;;;;2.88;2.40;;;;;;;;;;5031907;27;95729;-74
2024/01/21 05:16:16;;;;;;;2.40;2.05;;;;;;;;;;5054769;27;92878;-74
2024/01/21 05:18:44;;;;;;;3.55;1.80;;;;;;;;;;5054454;27;92328;-74
2024/01/21 05:21:11;;;;;;;2.65;2.05;;;;;;;;;;5035627;27;92577;-74
2024/01/21 05:23:38;;;;;;;2.28;1.80;;;;;;;;;;5034568;27;95212;-74
2024/01/21 05:26:04;;;;;;;3.65;1.92;;;;;;;;;;5054021;27;94054;-73
2024/01/21 05:28:31;;;;;;;3.47;2.67;;;;;;;;;;5057471;27;92630;-73
2024/01/21 05:30:57;;;;;;;2.80;1.90;;;;;;;;;;5053927;27;93473;-73
2024/01/21 05:33:24;;;;;;;2.10;2.00;;;;;;;;;;5053942;27;93943;-74
2024/01/21 05:35:50;;;;;;;2.08;1.90;;;;;;;;;;5054769;27;92361;-74
2024/01/21 05:38:17;;;;;;;2.55;1.95;;;;;;;;;;5054437;27;94487;-74
2024/01/21 05:40:43;;;;;;;2.85;1.92;;;;;;;;;;5035354;27;94401;-74
2024/01/21 05:43:10;;;;;;;2.53;1.88;;;;;;;;;;5054445;27;92421;-74
2024/01/21 05:45:36;;;;;;;2.85;2.38;;;;;;;;;;5053432;27;92352;-74
2024/01/21 05:48:03;;;;;;;3.15;2.08;;;;;;;;;;5053013;27;94846;-74
2024/01/21 05:50:30;;;;;;;2.55;1.98;;;;;;;;;;5056649;27;93163;-74
2024/01/21 05:52:56;;;;;;;3.53;1.65;;;;;;;;;;5054137;27;93183;-74
2024/01/21 05:55:23;;;;;;;3.63;1.88;;;;;;;;;;5036112;27;93175;-74
2024/01/21 05:57:49;;;;;;;1.90;1.80;;;;;;;;;;5053032;27;92410;-74
2024/01/21 06:00:16;;;;;;;2.38;2.17;;;;;;;;;;5054909;27;93037;-74
2024/01/21 06:02:43;;;;;;;2.00;1.73;;;;;;;;;;5053115;27;93526;-74
2024/01/21 06:05:10;;;;;;;3.65;2.20;;;;;;;;;;5054379;27;92874;-74
2024/01/21 06:07:36;;;;;;;2.35;2.15;;;;;;;;;;5036182;27;93216;-73
2024/01/21 06:10:03;;;;;;;1.80;1.70;;;;;;;;;;5052203;27;92919;-74
2024/01/21 06:12:30;;;;;;;1.98;1.88;;;;;;;;;;5053682;27;94169;-74
2024/01/21 06:14:56;;;;;;;2.50;2.20;;;;;;;;;;5054548;27;93025;-74
2024/01/21 06:17:23;;;;;;;2.92;2.08;;;;;;;;;;5034475;27;93699;-74
2024/01/21 06:19:49;;;;;;;3.10;2.00;;;;;;;;;;5052343;27;92496;-74
2024/01/21 06:22:16;;;;;;;4.80;2.25;;;;;;;;;;5053759;27;92430;-74
2024/01/21 06:24:42;;;;;;;2.45;1.80;;;;;;;;;;5052000;27;92333;-74
2024/01/21 06:27:09;;;;;;;3.00;2.40;;;;;;;;;;5053635;27;92386;-74
2024/01/21 06:29:35;;;;;;;4.90;2.00;;;;;;;;;;5034162;27;91986;-74
2024/01/21 06:32:02;;;;;;;2.42;2.20;;;;;;;;;;5054228;27;92408;-74
2024/01/21 06:34:28;;;;;;;2.45;2.28;;;;;;;;;;5053965;27;92827;-74
2024/01/21 06:36:55;;;;;;;3.63;2.10;;;;;;;;;;5052534;27;95255;-74
2024/01/21 06:39:21;;;;;;;3.17;2.13;;;;;;;;;;5053282;27;92713;-74
2024/01/21 06:41:48;;;;;;;2.75;1.80;;;;;;;;;;5034939;27;92401;-73
2024/01/21 06:44:15;;;;;;;2.53;2.20;;;;;;;;;;5046054;27;92831;-73
2024/01/21 06:46:41;;;;;;;2.20;1.88;;;;;;;;;;5034498;27;92487;-73
2024/01/21 06:49:07;;;;;;;2.90;2.50;;;;;;;;;;5035269;27;92890;-74
2024/01/21 06:51:43;;;;;;;1.92;1.70;;;;;;;;;;5053113;27;93028;-73
2024/01/21 06:54:10;;;;;;;3.03;1.92;;;;;;;;;;5053781;27;92136;-74
2024/01/21 06:56:36;;;;;;;2.45;1.98;;;;;;;;;;5038324;27;92534;-75
2024/01/21 06:59:03;;;;;;;1.98;1.83;;;;;;;;;;5052646;27;93069;-75
2024/01/21 07:01:30;;;;;;;2.25;2.10;;;;;;;;;;5052639;27;94901;-75
2024/01/21 07:03:56;;;;;;;2.75;2.33;;;;;;;;;;5052898;27;93983;-75
2024/01/21 07:06:23;;;;;;;2.38;2.17;;;;;;;;;;5053180;27;92931;-73
2024/01/21 07:08:50;;;;;;;2.60;2.40;;;;;;;;;;5052746;27;93424;-73
2024/01/21 07:11:16;;;;;;;2.58;2.38;;;;;;;;;;5052264;27;93086;-74
2024/01/21 07:13:43;;;;;;;1.85;1.75;;;;;;;;;;5053251;27;93238;-73
2024/01/21 07:16:09;;;;;;;2.85;2.30;;;;;;;;;;5056197;27;92354;-74
2024/01/21 07:18:36;;;;;;;2.13;1.90;;;;;;;;;;5052638;27;92022;-74
2024/01/21 07:21:02;;;;;;;3.85;2.38;;;;;;;;;;5052230;27;92951;-74
2024/01/21 07:23:29;;;;;;;3.42;2.42;;;;;;;;;;5052664;27;92335;-74
2024/01/21 07:25:56;;;;;;;3.40;2.42;;;;;;;;;;5043577;27;94910;-75
2024/01/21 07:28:23;;;;;;;2.10;2.00;;;;;;;;;;5053375;27;91959;-74
2024/01/21 07:30:49;;;;;;;2.40;2.20;;;;;;;;;;5051773;27;92466;-74
2024/01/21 07:33:16;;;;;;;2.78;2.28;;;;;;;;;;5033726;27;92482;-74
2024/01/21 07:35:45;;;;;;;2.15;2.00;;;;;;;;;;5053080;27;92924;-74
2024/01/21 07:38:11;;;;;;;2.78;2.58;;;;;;;;;;5037039;27;92315;-73
2024/01/21 07:40:37;;;;;;;3.88;2.30;;;;;;;;;;5052413;27;92768;-74
2024/01/21 07:43:05;;;;;;;2.40;2.00;;;;;;;;;;5052944;27;92704;-74
2024/01/21 07:45:31;;;;;;;2.17;1.80;;;;;;;;;;5033569;27;92595;-73
2024/01/21 07:47:58;;;;;;;2.00;1.90;;;;;;;;;;5052214;27;92377;-74
2024/01/21 07:50:25;;;;;;;2.10;1.90;;;;;;;;;;5049739;27;94675;-74
2024/01/21 07:52:51;;;;;;;6.53;2.20;;;;;;;;;;5033745;27;92540;-74
2024/01/21 07:55:17;;;;;;;2.25;2.05;;;;;;;;;;5051657;27;93554;-74
2024/01/21 07:57:44;;;;;;;3.53;2.45;;;;;;;;;;5050354;27;92460;-74
2024/01/21 08:00:11;;;;;;;2.70;2.50;;;;;;;;;;5035631;27;92883;-73
2024/01/21 08:02:38;;;;;;;2.85;2.55;;;;;;;;;;5030678;27;94763;-74
2024/01/21 08:05:05;;;;;;;5.03;2.78;;;;;;;;;;5051780;27;92414;-73
2024/01/21 08:07:31;;;;;;;3.60;2.22;;;;;;;;;;5053371;27;92110;-74
2024/01/21 08:09:58;;;;;;;3.63;2.50;;;;;;;;;;5032388;27;93003;-74
2024/01/21 08:12:24;;;;;;;7.90;2.47;;;;;;;;;;5051351;27;93077;-73
2024/01/21 08:14:51;;;;;;;3.25;2.15;;;;;;;;;;5032263;27;94955;-74
2024/01/21 08:17:18;;;;;;;2.42;2.05;;;;;;;;;;5032811;27;95321;-74
2024/01/21 08:19:45;;;;;;;3.33;2.58;;;;;;;;;;5050098;27;93000;-73
2024/01/21 08:22:12;;;;;;;2.75;2.40;;;;;;;;;;5055822;27;92536;-74
2024/01/21 08:24:38;;;;;;;2.50;2.10;;;;;;;;;;5049947;27;92517;-74
2024/01/21 08:27:05;;;;;;;2.60;2.10;;;;;;;;;;5052520;27;92412;-74
2024/01/21 08:29:31;;;;;;;3.10;2.13;;;;;;;;;;5051139;27;92348;-73
2024/01/21 08:31:59;;;;;;;2.70;2.13;;;;;;;;;;5052718;27;93597;-73
2024/01/21 08:34:25;;;;;;;2.55;2.33;;;;;;;;;;5050456;27;92475;-73
2024/01/21 08:36:56;;;;;;;2.08;1.88;;;;;;;;;;5055313;27;92910;-74
2024/01/21 08:39:23;;;;;;;2.72;1.88;;;;;;;;;;5041601;27;95001;-72
2024/01/21 08:41:50;;;;;;;2.17;1.92;;;;;;;;;;5054635;27;93225;-73
2024/01/21 08:44:16;;;;;;;1.95;1.80;;;;;;;;;;5059924;27;92951;-73
2024/01/21 08:46:43;;;;;;;5.93;2.08;;;;;;;;;;5057813;27;92890;-73
2024/01/21 08:49:13;;;;;;;3.53;2.53;;;;;;;;;;5055238;27;92747;-74
2024/01/21 08:51:41;;;;;;;1.85;1.75;;;;;;;;;;5054145;27;92184;-72
2024/01/21 08:54:08;;;;;;;3.28;2.40;;;;;;;;;;5054511;27;93209;-73
2024/01/21 08:56:35;;;;;;;2.72;2.22;;;;;;;;;;5036838;27;92068;-74
2024/01/21 08:59:02;;;;;;;3.15;1.77;;;;;;;;;;5054765;27;93098;-73
2024/01/21 09:01:29;;;;;;;4.32;1.90;;;;;;;;;;5054043;27;92378;-74
2024/01/21 09:03:56;;;;;;;2.53;2.33;;;;;;;;;;5052819;27;94942;-73
2024/01/21 09:06:23;;;;;;;2.55;1.80;;;;;;;;;;5057958;27;92523;-74
2024/01/21 09:08:53;;;;;;;3.22;2.25;;;;;;;;;;5054464;27;92794;-73
2024/01/21 09:11:20;;;;;;;2.20;2.00;;;;;;;;;;5053620;27;92356;-74
2024/01/21 09:13:47;;;;;;;2.80;2.20;;;;;;;;;;5054472;27;92736;-73
2024/01/21 09:16:17;;;;;;;4.90;1.90;;;;;;;;;;5054555;27;92345;-73
2024/01/21 09:18:43;;;;;;;2.45;1.88;;;;;;;;;;5054285;27;93101;-72
2024/01/21 09:21:10;;;;;;;4.05;2.35;;;;;;;;;;5054978;27;92327;-72
2024/01/21 09:23:53;;;;;;;2.15;1.95;;;;;;;;;;5053589;27;93054;-72
2024/01/21 09:26:19;;;;;;;2.00;1.75;;;;;;;;;;5057086;27;92767;-72
2024/01/21 09:28:46;;;;;;;1.70;1.60;;;;;;;;;;5052224;27;94955;-71
2024/01/21 09:31:12;;;;;;;1.95;1.83;;;;;;;;;;5053546;27;93247;-72
2024/01/21 09:33:39;;;;;;;4.32;1.85;;;;;;;;;;5054423;27;92493;-72
2024/01/21 09:36:05;;;;;;;2.20;2.00;;;;;;;;;;5054207;27;92101;-74
2024/01/21 09:38:32;;;;;;;2.17;1.98;;;;;;;;;;5053930;27;92456;-75
2024/01/21 09:41:28;;;;;;;2.35;1.80;;;;;;;;;;5053790;27;92278;-74
2024/01/21 09:43:55;;;;;;;1.70;1.60;;;;;;;;;;5031212;27;92690;-74
2024/01/21 09:46:22;;;;;;;1.92;1.70;;;;;;;;;;5053901;27;92166;-74
2024/01/21 09:48:50;;;;;;;2.13;1.92;;;;;;;;;;5038973;27;92781;-74
2024/01/21 09:51:20;;;;;;;3.25;2.13;;;;;;;;;;5034867;27;92187;-74
2024/01/21 09:53:48;;;;;;;3.20;2.00;;;;;;;;;;5053109;27;94896;-73
2024/01/21 09:56:16;;;;;;;3.67;2.50;;;;;;;;;;5054316;27;93971;-74
2024/01/21 09:58:47;;;;;;;2.05;1.85;;;;;;;;;;5053069;27;92390;-74
2024/01/21 10:01:14;;;;;;;1.90;1.67;;;;;;;;;;5030232;27;93002;-74
2024/01/21 10:03:41;;;;;;;2.60;2.00;;;;;;;;;;5052886;27;92434;-73
2024/01/21 10:06:08;;;;;;;4.53;3.40;;;;;;;;;;5053629;27;92491;-74
2024/01/21 10:08:42;;;;;;;15.15;4.65;;;;;;;;;;5053919;27;92764;-73
2024/01/21 10:11:09;;;;;;;5.70;3.58;;;;;;;;;;5057132;27;92031;-74
2024/01/21 10:13:39;;;;;;;8.30;3.70;;;;;;;;;;5028879;27;92317;-74
2024/01/21 10:16:06;;;;;;;7.35;3.85;;;;;;;;;;5053126;27;92478;-73
2024/01/21 10:18:33;;;;;;;6.60;3.67;;;;;;;;;;5051905;27;94936;-74
2024/01/21 10:21:04;;;;;;;4.18;3.00;;;;;;;;;;5034500;27;94323;-74
2024/01/21 10:23:32;;;;;;;5.05;3.35;;;;;;;;;;5055536;27;93097;-74
2024/01/21 10:25:58;;;;;;;4.15;2.40;;;;;;;;;;5053177;27;92691;-74
2024/01/21 10:28:26;;;;;;;8.82;3.00;;;;;;;;;;5054474;27;92503;-73
2024/01/21 10:30:52;;;;;;;2.88;2.58;;;;;;;;;;5053018;27;92831;-74
2024/01/21 10:33:19;;;;;;;5.82;2.70;;;;;;;;;;5055419;27;93176;-73
2024/01/21 10:35:47;;;;;;;9.45;3.22;;;;;;;;;;5053011;27;92163;-74
2024/01/21 10:38:14;;;;;;;2.70;2.00;;;;;;;;;;5053031;27;93237;-74
2024/01/21 10:40:44;;;;;;;4.35;2.47;;;;;;;;;;5052973;27;92783;-74
2024/01/21 10:43:14;;;;;;;3.53;2.35;;;;;;;;;;5029141;27;94658;-74
2024/01/21 10:45:46;;;;;;;6.30;2.38;;;;;;;;;;5053639;27;92441;-74
2024/01/21 10:48:13;;;;;;;2.78;2.08;;;;;;;;;;5053143;27;92429;-74
2024/01/21 10:50:43;;;;;;;3.20;2.15;;;;;;;;;;5053133;27;92307;-74
2024/01/21 10:53:11;;;;;;;5.28;2.22;;;;;;;;;;5034163;27;92499;-74
2024/01/21 10:55:41;;;;;;;3.03;2.00;;;;;;;;;;5056704;27;92521;-74
2024/01/21 10:58:08;;;;;;;2.47;2.00;;;;;;;;;;5032718;27;92970;-74
2024/01/21 11:00:35;;;;;;;3.20;2.10;;;;;;;;;;5023876;27;94914;-74
2024/01/21 11:03:22;;;;;;;4.07;2.17;;;;;;;;;;5053688;27;92348;-74
2024/01/21 11:06:06;;;;;;;1.63;1.52;;;;;;;;;;5052063;27;92537;-75
2024/01/21 11:08:34;;;;;;;3.08;2.35;;;;;;;;;;5052062;27;95313;-75
2024/01/21 11:11:04;;;;;;;3.10;1.65;;;;;;;;;;5034673;27;94390;-74
2024/01/21 11:13:44;;;;;;;1.90;1.50;;;;;;;;;;5053839;27;93007;-74
2024/01/21 11:16:11;;;;;;;3.08;1.98;;;;;;;;;;5052788;27;92931;-74
2024/01/21 11:18:38;;;;;;;2.00;1.90;;;;;;;;;;5056813;27;92821;-75
2024/01/21 11:21:05;;;;;;;5.68;2.15;;;;;;;;;;5034839;27;92503;-74
2024/01/21 11:23:33;;;;;;;3.75;1.98;;;;;;;;;;5053361;27;92888;-75
2024/01/21 11:26:00;;;;;;;2.22;1.83;;;;;;;;;;5052526;27;91698;-75
2024/01/21 11:28:27;;;;;;;1.80;1.70;;;;;;;;;;5053423;27;92875;-74
2024/01/21 11:31:01;;;;;;;2.47;1.90;;;;;;;;;;5050945;27;92891;-74
2024/01/21 11:33:29;;;;;;;2.03;1.83;;;;;;;;;;5030916;27;94845;-74
2024/01/21 11:35:57;;;;;;;2.10;1.50;;;;;;;;;;5051498;27;92716;-74
2024/01/21 11:38:23;;;;;;;2.08;1.98;;;;;;;;;;5055770;27;92717;-74
2024/01/21 11:41:01;;;;;;;3.40;1.90;;;;;;;;;;5050063;27;92857;-74
2024/01/21 11:43:27;;;;;;;1.60;1.50;;;;;;;;;;5033848;27;93145;-74
2024/01/21 11:45:54;;;;;;;2.00;1.90;;;;;;;;;;5050688;27;93006;-74
2024/01/21 11:48:27;;;;;;;3.22;1.55;;;;;;;;;;5032562;27;93070;-75
2024/01/21 11:50:55;;;;;;;13.80;6.25;;;;;;;;;;5052350;27;93393;-75
2024/01/21 11:53:21;;;;;;;10.65;4.47;;;;;;;;;;5036710;27;92444;-74
2024/01/21 11:55:48;;;;;;;9.05;4.43;;;;;;;;;;5052752;27;92736;-74
2024/01/21 11:58:15;;;;;;;8.57;4.35;;;;;;;;;;5034521;27;95202;-74
2024/01/21 12:00:41;;;;;;;6.43;3.83;;;;;;;;;;5056753;27;92482;-74
2024/01/21 12:03:08;;;;;;;7.90;4.10;;;;;;;;;;5051050;27;92963;-74
2024/01/21 12:05:36;;;;;;;9.90;4.00;;;;;;;;;;5051311;27;92333;-75
2024/01/21 12:08:02;;;;;;;6.50;3.50;;;;;;;;;;5050543;27;92423;-75
2024/01/21 12:10:29;;;;;;;5.68;3.47;;;;;;;;;;5034295;27;93650;-74
2024/01/21 12:12:56;;;;;;;6.05;3.35;;;;;;;;;;5054119;27;93245;-74
2024/01/21 12:15:23;;;;;;;8.07;4.05;;;;;;;;;;5055873;27;92177;-74
2024/01/21 12:17:55;;;;;;;5.95;3.38;;;;;;;;;;5030778;28;92061;-74
2024/01/21 12:20:22;;;;;;;8.05;3.00;;;;;;;;;;5049168;27;92570;-74
2024/01/21 12:22:50;;;;;;;5.40;2.83;;;;;;;;;;5057350;27;94770;-74
2024/01/21 12:25:16;;;;;;;5.10;3.03;;;;;;;;;;5022261;27;92487;-74
2024/01/21 12:27:46;;;;;;;7.70;3.13;;;;;;;;;;5055882;27;93062;-74
2024/01/21 12:30:13;;;;;;;5.15;2.40;;;;;;;;;;5055600;27;92400;-74
2024/01/21 12:32:40;;;;;;;3.80;2.55;;;;;;;;;;5055555;27;92657;-74
2024/01/21 12:35:15;;;;;;;5.00;2.65;;;;;;;;;;5054302;27;92656;-74
2024/01/21 12:37:42;;;;;;;3.08;2.47;;;;;;;;;;5055854;27;92901;-74
2024/01/21 12:40:09;;;;;;;4.50;2.33;;;;;;;;;;5054493;27;92111;-74
2024/01/21 12:42:35;;;;;;;5.22;2.53;;;;;;;;;;5054845;27;92681;-74
2024/01/21 12:45:02;;;;;;;4.03;2.50;;;;;;;;;;5058745;27;92415;-74
2024/01/21 12:47:28;;;;;;;2.72;2.05;;;;;;;;;;5052633;27;94841;-74
2024/01/21 12:49:55;;;;;;;3.67;2.20;;;;;;;;;;5053945;27;95205;-74
2024/01/21 12:52:21;;;;;;;3.50;2.42;;;;;;;;;;5056071;27;92358;-74
2024/01/21 12:54:48;;;;;;;4.05;2.10;;;;;;;;;;5054325;27;92544;-74
2024/01/21 12:57:15;;;;;;;5.18;2.60;;;;;;;;;;5036609;27;93397;-74
2024/01/21 12:59:42;;;;;;;6.20;2.33;;;;;;;;;;5055706;27;93191;-75
2024/01/21 13:02:08;;;;;;;2.55;2.00;;;;;;;;;;5053229;27;92585;-74
2024/01/21 13:04:34;;;;;;;2.38;2.17;;;;;;;;;;5055588;27;91888;-74
2024/01/21 13:07:01;;;;;;;2.85;2.20;;;;;;;;;;5039980;27;93749;-74
2024/01/21 13:09:28;;;;;;;2.88;2.35;;;;;;;;;;5054536;27;92379;-75
2024/01/21 13:11:55;;;;;;;2.35;2.15;;;;;;;;;;5054232;27;94957;-74
2024/01/21 13:14:21;;;;;;;4.00;2.03;;;;;;;;;;5056395;27;92571;-75
2024/01/21 13:16:54;;;;;;;6.93;1.83;;;;;;;;;;5055954;27;92410;-74
2024/01/21 13:19:21;;;;;;;2.50;2.03;;;;;;;;;;5055684;27;92459;-75
2024/01/21 13:21:48;;;;;;;2.88;2.13;;;;;;;;;;5055048;27;92399;-74
2024/01/21 13:24:15;;;;;;;3.35;1.90;;;;;;;;;;5055616;27;92673;-74
2024/01/21 13:26:43;;;;;;;2.50;2.25;;;;;;;;;;5056093;27;92372;-73
2024/01/21 13:31:55;;;;;;;3.20;2.17;;;;;;;;;;5055511;27;92361;-74
2024/01/21 13:34:21;;;;;;;2.60;2.40;;;;;;;;;;5053765;27;92984;-74
2024/01/21 13:36:48;;;;;;;3.05;1.88;;;;;;;;;;5052643;27;94794;-74
2024/01/21 13:39:16;;;;;;;2.67;1.95;;;;;;;;;;5053941;27;93266;-73
2024/01/21 13:41:42;;;;;;;2.90;2.08;;;;;;;;;;5053931;27;93379;-74
2024/01/21 13:44:09;;;;;;;2.90;1.83;;;;;;;;;;5053654;27;92398;-74
2024/01/21 13:46:37;;;;;;;5.18;2.15;;;;;;;;;;5053714;27;92433;-74
2024/01/21 13:49:04;;;;;;;2.72;2.45;;;;;;;;;;5057136;27;92391;-74
2024/01/21 13:51:31;;;;;;;2.28;1.88;;;;;;;;;;5053542;27;92441;-74
2024/01/21 13:53:58;;;;;;;3.67;2.10;;;;;;;;;;5054139;27;93510;-74
2024/01/21 13:56:24;;;;;;;1.90;1.42;;;;;;;;;;5035435;27;92757;-74
2024/01/21 13:58:54;;;;;;;3.67;2.15;;;;;;;;;;5033899;27;92532;-74
2024/01/21 14:01:20;;;;;;;1.92;1.83;;;;;;;;;;5024511;27;94994;-74
2024/01/21 14:03:47;;;;;;;3.80;2.10;;;;;;;;;;5053335;27;93945;-75
2024/01/21 14:06:14;;;;;;;2.58;2.03;;;;;;;;;;5034610;27;92449;-74
2024/01/21 14:08:40;;;;;;;4.35;2.13;;;;;;;;;;5053769;27;92687;-74
2024/01/21 14:11:07;;;;;;;2.40;1.90;;;;;;;;;;5037044;27;93159;-74
2024/01/21 14:13:34;;;;;;;3.45;1.73;;;;;;;;;;5052612;27;92804;-74
2024/01/21 14:16:01;;;;;;;2.63;1.95;;;;;;;;;;5054238;27;92983;-75
2024/01/21 14:18:28;;;;;;;2.53;1.77;;;;;;;;;;5053350;27;92088;-74
2024/01/21 14:20:54;;;;;;;2.28;1.75;;;;;;;;;;5052175;27;92546;-74
2024/01/21 14:23:21;;;;;;;2.40;1.92;;;;;;;;;;5054372;27;92327;-74
2024/01/21 14:25:47;;;;;;;2.25;1.98;;;;;;;;;;5047068;27;94773;-74
2024/01/21 14:28:14;;;;;;;3.83;1.80;;;;;;;;;;5053824;27;92490;-74
2024/01/21 14:30:41;;;;;;;2.17;1.98;;;;;;;;;;5053294;27;92502;-74
2024/01/21 14:33:07;;;;;;;3.03;2.10;;;;;;;;;;5055440;27;93487;-74
2024/01/21 14:35:34;;;;;;;2.63;2.42;;;;;;;;;;5052384;27;92905;-75
2024/01/21 14:38:00;;;;;;;2.72;1.95;;;;;;;;;;5052746;27;94512;-74
2024/01/21 14:40:27;;;;;;;2.20;1.80;;;;;;;;;;5051293;27;92417;-74
2024/01/21 14:42:54;;;;;;;2.30;2.08;;;;;;;;;;5025092;27;92838;-73
2024/01/21 14:45:21;;;;;;;9.23;1.90;;;;;;;;;;5030033;27;93281;-73